sensor_id;sensor_type;location;lat;lon;timestamp;P1;durP1;ratioP1;P2;durP2;ratioP2
79019;SDS011;68422;44.714;37.756;2023-03-21T00:00:55;5.50;;;3.40;;
79019;SDS011;68422;44.714;37.756;2023-03-21T00:01:58;6.70;;;3.63;;
79019;SDS011;68422;44.714;37.756;2023-03-21T00:03:00;6.63;;;4.25;;
79019;SDS011;68422;44.714;37.756;2023-03-21T00:04:01;5.90;;;3.42;;
79019;SDS011;68422;44.714;37.756;2023-03-21T00:05:03;5.88;;;3.58;;
79019;SDS011;68422;44.714;37.756;2023-03-21T00:06:05;6.50;;;3.50;;
79019;SDS011;68422;44.714;37.756;2023-03-21T00:07:08;6.70;;;3.90;;
79019;SDS011;68422;44.714;37.756;2023-03-21T00:08:09;6.38;;;3.80;;
79019;SDS011;68422;44.714;37.756;2023-03-21T00:09:11;5.93;;;3.40;;
79019;SDS011;68422;44.714;37.756;2023-03-21T00:10:12;6.30;;;3.20;;
79019;SDS011;68422;44.714;37.756;2023-03-21T00:11:14;5.32;;;3.47;;
79019;SDS011;68422;44.714;37.756;2023-03-21T00:12:16;5.72;;;3.35;;
79019;SDS011;68422;44.714;37.756;2023-03-21T00:13:20;7.05;;;3.70;;
79019;SDS011;68422;44.714;37.756;2023-03-21T00:14:21;5.18;;;3.10;;
79019;SDS011;68422;44.714;37.756;2023-03-21T00:15:24;6.90;;;3.40;;
79019;SDS011;68422;44.714;37.756;2023-03-21T00:16:27;6.57;;;3.85;;
79019;SDS011;68422;44.714;37.756;2023-03-21T00:17:30;6.63;;;4.20;;
79019;SDS011;68422;44.714;37.756;2023-03-21T00:18:32;5.28;;;3.35;;
79019;SDS011;68422;44.714;37.756;2023-03-21T00:19:36;5.18;;;2.97;;
79019;SDS011;68422;44.714;37.756;2023-03-21T00:20:38;5.43;;;3.30;;
79019;SDS011;68422;44.714;37.756;2023-03-21T00:21:39;5.70;;;3.42;;
79019;SDS011;68422;44.714;37.756;2023-03-21T00:22:41;8.52;;;3.45;;
79019;SDS011;68422;44.714;37.756;2023-03-21T00:23:43;5.95;;;3.08;;
79019;SDS011;68422;44.714;37.756;2023-03-21T00:24:48;6.00;;;3.08;;
79019;SDS011;68422;44.714;37.756;2023-03-21T00:25:51;5.90;;;3.08;;
79019;SDS011;68422;44.714;37.756;2023-03-21T00:26:53;6.70;;;3.40;;
79019;SDS011;68422;44.714;37.756;2023-03-21T00:27:54;5.63;;;3.03;;
79019;SDS011;68422;44.714;37.756;2023-03-21T00:28:56;5.63;;;3.70;;
79019;SDS011;68422;44.714;37.756;2023-03-21T00:29:57;4.80;;;3.22;;
79019;SDS011;68422;44.714;37.756;2023-03-21T00:30:58;4.93;;;2.80;;
79019;SDS011;68422;44.714;37.756;2023-03-21T00:32:00;5.60;;;3.15;;
79019;SDS011;68422;44.714;37.756;2023-03-21T00:33:02;4.88;;;2.70;;
79019;SDS011;68422;44.714;37.756;2023-03-21T00:34:03;6.50;;;3.35;;
79019;SDS011;68422;44.714;37.756;2023-03-21T00:35:05;6.88;;;3.25;;
79019;SDS011;68422;44.714;37.756;2023-03-21T00:36:08;4.97;;;2.97;;
79019;SDS011;68422;44.714;37.756;2023-03-21T00:37:10;5.97;;;3.20;;
79019;SDS011;68422;44.714;37.756;2023-03-21T00:38:16;5.78;;;3.00;;
79019;SDS011;68422;44.714;37.756;2023-03-21T00:39:17;5.53;;;3.30;;
79019;SDS011;68422;44.714;37.756;2023-03-21T00:40:19;5.40;;;2.85;;
79019;SDS011;68422;44.714;37.756;2023-03-21T00:41:20;5.70;;;2.92;;
79019;SDS011;68422;44.714;37.756;2023-03-21T00:42:21;6.45;;;3.03;;
79019;SDS011;68422;44.714;37.756;2023-03-21T00:43:23;5.25;;;2.95;;
79019;SDS011;68422;44.714;37.756;2023-03-21T00:44:29;5.68;;;3.15;;
79019;SDS011;68422;44.714;37.756;2023-03-21T00:45:36;5.30;;;3.17;;
79019;SDS011;68422;44.714;37.756;2023-03-21T00:46:38;6.88;;;3.35;;
79019;SDS011;68422;44.714;37.756;2023-03-21T00:47:40;4.93;;;2.90;;
79019;SDS011;68422;44.714;37.756;2023-03-21T00:48:41;5.03;;;3.00;;
79019;SDS011;68422;44.714;37.756;2023-03-21T00:49:42;5.43;;;3.10;;
79019;SDS011;68422;44.714;37.756;2023-03-21T00:50:44;5.93;;;3.03;;
79019;SDS011;68422;44.714;37.756;2023-03-21T00:51:48;5.65;;;2.75;;
79019;SDS011;68422;44.714;37.756;2023-03-21T00:52:53;5.70;;;2.83;;
79019;SDS011;68422;44.714;37.756;2023-03-21T00:53:55;6.60;;;3.20;;
79019;SDS011;68422;44.714;37.756;2023-03-21T00:55:01;5.50;;;2.83;;
79019;SDS011;68422;44.714;37.756;2023-03-21T00:56:02;5.32;;;2.92;;
79019;SDS011;68422;44.714;37.756;2023-03-21T00:57:04;5.10;;;2.72;;
79019;SDS011;68422;44.714;37.756;2023-03-21T00:58:05;5.35;;;2.75;;
79019;SDS011;68422;44.714;37.756;2023-03-21T00:59:07;5.75;;;2.90;;
79019;SDS011;68422;44.714;37.756;2023-03-21T01:00:09;5.60;;;2.75;;
79019;SDS011;68422;44.714;37.756;2023-03-21T01:01:12;5.72;;;3.17;;
79019;SDS011;68422;44.714;37.756;2023-03-21T01:02:13;5.35;;;2.53;;
79019;SDS011;68422;44.714;37.756;2023-03-21T01:03:22;5.95;;;2.65;;
79019;SDS011;68422;44.714;37.756;2023-03-21T01:04:26;4.70;;;2.53;;
79019;SDS011;68422;44.714;37.756;2023-03-21T01:05:29;4.40;;;2.35;;
79019;SDS011;68422;44.714;37.756;2023-03-21T01:06:49;5.10;;;2.70;;
79019;SDS011;68422;44.714;37.756;2023-03-21T01:07:52;4.20;;;2.47;;
79019;SDS011;68422;44.714;37.756;2023-03-21T01:08:53;5.28;;;2.70;;
79019;SDS011;68422;44.714;37.756;2023-03-21T01:09:54;4.95;;;2.72;;
79019;SDS011;68422;44.714;37.756;2023-03-21T01:10:56;4.88;;;2.75;;
79019;SDS011;68422;44.714;37.756;2023-03-21T01:12:02;4.93;;;2.75;;
79019;SDS011;68422;44.714;37.756;2023-03-21T01:13:03;4.97;;;2.97;;
79019;SDS011;68422;44.714;37.756;2023-03-21T01:14:04;5.78;;;2.53;;
79019;SDS011;68422;44.714;37.756;2023-03-21T01:15:06;5.13;;;2.53;;
79019;SDS011;68422;44.714;37.756;2023-03-21T01:16:07;5.07;;;2.60;;
79019;SDS011;68422;44.714;37.756;2023-03-21T01:17:09;4.93;;;2.25;;
79019;SDS011;68422;44.714;37.756;2023-03-21T01:18:11;5.47;;;2.45;;
79019;SDS011;68422;44.714;37.756;2023-03-21T01:19:14;6.07;;;2.28;;
79019;SDS011;68422;44.714;37.756;2023-03-21T01:20:17;5.15;;;2.60;;
79019;SDS011;68422;44.714;37.756;2023-03-21T01:21:19;5.18;;;2.75;;
79019;SDS011;68422;44.714;37.756;2023-03-21T01:22:20;6.82;;;2.45;;
79019;SDS011;68422;44.714;37.756;2023-03-21T01:23:22;5.13;;;2.47;;
79019;SDS011;68422;44.714;37.756;2023-03-21T01:24:24;4.05;;;2.30;;
79019;SDS011;68422;44.714;37.756;2023-03-21T01:25:25;5.30;;;2.72;;
79019;SDS011;68422;44.714;37.756;2023-03-21T01:26:27;4.85;;;2.50;;
79019;SDS011;68422;44.714;37.756;2023-03-21T01:27:28;4.82;;;2.58;;
79019;SDS011;68422;44.714;37.756;2023-03-21T01:28:30;5.00;;;2.60;;
79019;SDS011;68422;44.714;37.756;2023-03-21T01:29:32;4.00;;;2.30;;
79019;SDS011;68422;44.714;37.756;2023-03-21T01:30:33;4.60;;;2.25;;
79019;SDS011;68422;44.714;37.756;2023-03-21T01:31:36;4.60;;;2.47;;
79019;SDS011;68422;44.714;37.756;2023-03-21T01:32:38;4.50;;;2.30;;
79019;SDS011;68422;44.714;37.756;2023-03-21T01:33:39;5.30;;;2.55;;
79019;SDS011;68422;44.714;37.756;2023-03-21T01:34:41;4.20;;;2.15;;
79019;SDS011;68422;44.714;37.756;2023-03-21T01:35:43;4.32;;;2.42;;
79019;SDS011;68422;44.714;37.756;2023-03-21T01:36:44;4.30;;;2.50;;
79019;SDS011;68422;44.714;37.756;2023-03-21T01:37:50;4.90;;;2.28;;
79019;SDS011;68422;44.714;37.756;2023-03-21T01:38:52;5.07;;;2.63;;
79019;SDS011;68422;44.714;37.756;2023-03-21T01:39:53;5.82;;;2.70;;
79019;SDS011;68422;44.714;37.756;2023-03-21T01:40:55;5.05;;;3.05;;
79019;SDS011;68422;44.714;37.756;2023-03-21T01:42:03;5.95;;;2.60;;
79019;SDS011;68422;44.714;37.756;2023-03-21T01:43:05;5.00;;;2.13;;
79019;SDS011;68422;44.714;37.756;2023-03-21T01:44:19;4.88;;;2.20;;
79019;SDS011;68422;44.714;37.756;2023-03-21T01:47:32;3.45;;;2.17;;
79019;SDS011;68422;44.714;37.756;2023-03-21T01:49:34;5.03;;;2.47;;
79019;SDS011;68422;44.714;37.756;2023-03-21T01:50:50;5.00;;;2.25;;
79019;SDS011;68422;44.714;37.756;2023-03-21T01:52:04;4.68;;;2.25;;
79019;SDS011;68422;44.714;37.756;2023-03-21T01:53:09;3.85;;;2.00;;
79019;SDS011;68422;44.714;37.756;2023-03-21T01:54:16;5.40;;;2.35;;
79019;SDS011;68422;44.714;37.756;2023-03-21T01:55:24;5.75;;;2.30;;
79019;SDS011;68422;44.714;37.756;2023-03-21T01:56:44;4.60;;;2.28;;
79019;SDS011;68422;44.714;37.756;2023-03-21T01:57:50;3.95;;;2.10;;
79019;SDS011;68422;44.714;37.756;2023-03-21T01:58:55;4.30;;;2.50;;
79019;SDS011;68422;44.714;37.756;2023-03-21T02:00:43;4.90;;;2.03;;
79019;SDS011;68422;44.714;37.756;2023-03-21T02:02:10;5.05;;;2.47;;
79019;SDS011;68422;44.714;37.756;2023-03-21T02:03:27;4.68;;;2.17;;
79019;SDS011;68422;44.714;37.756;2023-03-21T02:04:39;4.55;;;2.22;;
79019;SDS011;68422;44.714;37.756;2023-03-21T02:05:58;4.30;;;2.20;;
79019;SDS011;68422;44.714;37.756;2023-03-21T02:07:12;5.57;;;2.28;;
79019;SDS011;68422;44.714;37.756;2023-03-21T02:08:32;5.40;;;2.22;;
79019;SDS011;68422;44.714;37.756;2023-03-21T02:09:39;4.45;;;2.08;;
79019;SDS011;68422;44.714;37.756;2023-03-21T02:10:49;5.20;;;2.20;;
79019;SDS011;68422;44.714;37.756;2023-03-21T02:12:02;4.85;;;2.00;;
79019;SDS011;68422;44.714;37.756;2023-03-21T02:13:05;4.85;;;2.30;;
79019;SDS011;68422;44.714;37.756;2023-03-21T02:14:15;4.38;;;2.17;;
79019;SDS011;68422;44.714;37.756;2023-03-21T02:15:29;4.15;;;2.00;;
79019;SDS011;68422;44.714;37.756;2023-03-21T02:27:09;3.72;;;1.80;;
79019;SDS011;68422;44.714;37.756;2023-03-21T02:28:27;3.88;;;2.05;;
79019;SDS011;68422;44.714;37.756;2023-03-21T02:31:04;4.32;;;2.05;;
79019;SDS011;68422;44.714;37.756;2023-03-21T02:37:19;3.80;;;1.80;;
79019;SDS011;68422;44.714;37.756;2023-03-21T02:38:25;4.80;;;1.98;;
79019;SDS011;68422;44.714;37.756;2023-03-21T02:39:52;4.13;;;1.98;;
79019;SDS011;68422;44.714;37.756;2023-03-21T02:43:56;4.18;;;1.80;;
79019;SDS011;68422;44.714;37.756;2023-03-21T02:45:08;4.88;;;2.00;;
79019;SDS011;68422;44.714;37.756;2023-03-21T02:46:14;4.45;;;2.20;;
79019;SDS011;68422;44.714;37.756;2023-03-21T02:47:33;3.83;;;1.75;;
79019;SDS011;68422;44.714;37.756;2023-03-21T02:51:34;4.13;;;1.77;;
79019;SDS011;68422;44.714;37.756;2023-03-21T02:52:39;3.63;;;1.60;;
79019;SDS011;68422;44.714;37.756;2023-03-21T02:53:46;3.50;;;1.52;;
79019;SDS011;68422;44.714;37.756;2023-03-21T02:54:51;3.65;;;1.80;;
79019;SDS011;68422;44.714;37.756;2023-03-21T02:55:59;4.10;;;2.10;;
79019;SDS011;68422;44.714;37.756;2023-03-21T02:57:03;3.75;;;1.48;;
79019;SDS011;68422;44.714;37.756;2023-03-21T02:58:07;5.20;;;1.80;;
79019;SDS011;68422;44.714;37.756;2023-03-21T02:59:10;3.67;;;1.63;;
79019;SDS011;68422;44.714;37.756;2023-03-21T03:00:24;4.15;;;2.00;;
79019;SDS011;68422;44.714;37.756;2023-03-21T03:01:29;3.45;;;1.70;;
79019;SDS011;68422;44.714;37.756;2023-03-21T03:02:32;3.53;;;1.70;;
79019;SDS011;68422;44.714;37.756;2023-03-21T03:03:33;3.95;;;1.70;;
79019;SDS011;68422;44.714;37.756;2023-03-21T03:04:38;3.90;;;1.65;;
79019;SDS011;68422;44.714;37.756;2023-03-21T03:05:44;3.95;;;1.63;;
79019;SDS011;68422;44.714;37.756;2023-03-21T03:10:09;3.88;;;1.67;;
79019;SDS011;68422;44.714;37.756;2023-03-21T03:15:16;3.35;;;1.52;;
79019;SDS011;68422;44.714;37.756;2023-03-21T03:17:21;4.70;;;1.73;;
79019;SDS011;68422;44.714;37.756;2023-03-21T03:19:27;3.55;;;1.83;;
79019;SDS011;68422;44.714;37.756;2023-03-21T03:21:48;3.85;;;1.67;;
79019;SDS011;68422;44.714;37.756;2023-03-21T03:24:30;5.25;;;1.77;;
79019;SDS011;68422;44.714;37.756;2023-03-21T03:25:41;3.67;;;1.67;;
79019;SDS011;68422;44.714;37.756;2023-03-21T03:27:59;3.13;;;1.52;;
79019;SDS011;68422;44.714;37.756;2023-03-21T03:29:04;5.88;;;1.83;;
79019;SDS011;68422;44.714;37.756;2023-03-21T03:30:10;4.28;;;1.55;;
79019;SDS011;68422;44.714;37.756;2023-03-21T03:31:15;4.45;;;1.50;;
79019;SDS011;68422;44.714;37.756;2023-03-21T03:32:47;4.57;;;1.70;;
79019;SDS011;68422;44.714;37.756;2023-03-21T03:33:54;3.05;;;1.40;;
79019;SDS011;68422;44.714;37.756;2023-03-21T03:34:58;5.32;;;1.80;;
79019;SDS011;68422;44.714;37.756;2023-03-21T03:36:03;3.33;;;1.48;;
79019;SDS011;68422;44.714;37.756;2023-03-21T03:37:11;4.15;;;1.52;;
79019;SDS011;68422;44.714;37.756;2023-03-21T03:38:16;3.80;;;1.90;;
79019;SDS011;68422;44.714;37.756;2023-03-21T03:39:19;4.57;;;1.50;;
79019;SDS011;68422;44.714;37.756;2023-03-21T03:40:33;3.78;;;1.60;;
79019;SDS011;68422;44.714;37.756;2023-03-21T03:42:59;4.28;;;1.58;;
79019;SDS011;68422;44.714;37.756;2023-03-21T03:44:11;4.18;;;1.92;;
79019;SDS011;68422;44.714;37.756;2023-03-21T03:45:19;3.65;;;1.50;;
79019;SDS011;68422;44.714;37.756;2023-03-21T03:48:45;4.28;;;1.50;;
79019;SDS011;68422;44.714;37.756;2023-03-21T03:49:56;3.20;;;1.35;;
79019;SDS011;68422;44.714;37.756;2023-03-21T03:51:27;3.58;;;1.45;;
79019;SDS011;68422;44.714;37.756;2023-03-21T03:53:02;4.30;;;1.80;;
79019;SDS011;68422;44.714;37.756;2023-03-21T03:54:14;3.35;;;1.80;;
79019;SDS011;68422;44.714;37.756;2023-03-21T03:55:21;3.63;;;1.48;;
79019;SDS011;68422;44.714;37.756;2023-03-21T03:56:25;3.20;;;1.50;;
79019;SDS011;68422;44.714;37.756;2023-03-21T03:57:27;3.17;;;1.33;;
79019;SDS011;68422;44.714;37.756;2023-03-21T03:58:30;3.40;;;1.40;;
79019;SDS011;68422;44.714;37.756;2023-03-21T03:59:35;4.68;;;1.63;;
79019;SDS011;68422;44.714;37.756;2023-03-21T04:00:54;3.63;;;1.50;;
79019;SDS011;68422;44.714;37.756;2023-03-21T04:01:56;3.60;;;1.52;;
79019;SDS011;68422;44.714;37.756;2023-03-21T04:02:58;4.40;;;1.42;;
79019;SDS011;68422;44.714;37.756;2023-03-21T04:04:00;3.90;;;1.35;;
79019;SDS011;68422;44.714;37.756;2023-03-21T04:05:01;4.30;;;1.48;;
79019;SDS011;68422;44.714;37.756;2023-03-21T04:06:04;7.25;;;2.05;;
79019;SDS011;68422;44.714;37.756;2023-03-21T04:07:06;6.70;;;1.70;;
79019;SDS011;68422;44.714;37.756;2023-03-21T04:08:07;29.08;;;5.78;;
79019;SDS011;68422;44.714;37.756;2023-03-21T04:09:14;34.10;;;6.43;;
79019;SDS011;68422;44.714;37.756;2023-03-21T04:10:16;29.77;;;7.65;;
79019;SDS011;68422;44.714;37.756;2023-03-21T04:11:18;28.05;;;5.90;;
79019;SDS011;68422;44.714;37.756;2023-03-21T04:12:25;36.75;;;8.38;;
79019;SDS011;68422;44.714;37.756;2023-03-21T04:13:40;46.80;;;7.95;;
79019;SDS011;68422;44.714;37.756;2023-03-21T04:14:44;31.77;;;8.10;;
79019;SDS011;68422;44.714;37.756;2023-03-21T04:15:46;41.97;;;7.22;;
79019;SDS011;68422;44.714;37.756;2023-03-21T04:17:51;26.75;;;5.70;;
79019;SDS011;68422;44.714;37.756;2023-03-21T04:18:53;34.15;;;6.22;;
79019;SDS011;68422;44.714;37.756;2023-03-21T04:19:54;34.70;;;6.85;;
79019;SDS011;68422;44.714;37.756;2023-03-21T04:20:57;31.73;;;6.15;;
79019;SDS011;68422;44.714;37.756;2023-03-21T04:22:02;29.48;;;7.28;;
79019;SDS011;68422;44.714;37.756;2023-03-21T04:23:05;25.33;;;5.78;;
79019;SDS011;68422;44.714;37.756;2023-03-21T04:24:07;24.15;;;5.68;;
79019;SDS011;68422;44.714;37.756;2023-03-21T04:25:09;31.65;;;5.85;;
79019;SDS011;68422;44.714;37.756;2023-03-21T04:26:11;29.52;;;5.72;;
79019;SDS011;68422;44.714;37.756;2023-03-21T04:27:20;29.38;;;5.60;;
79019;SDS011;68422;44.714;37.756;2023-03-21T04:28:38;32.03;;;5.90;;
79019;SDS011;68422;44.714;37.756;2023-03-21T04:29:59;35.97;;;5.70;;
79019;SDS011;68422;44.714;37.756;2023-03-21T04:31:24;29.65;;;5.82;;
79019;SDS011;68422;44.714;37.756;2023-03-21T04:32:40;28.10;;;5.43;;
79019;SDS011;68422;44.714;37.756;2023-03-21T04:33:47;27.90;;;6.07;;
79019;SDS011;68422;44.714;37.756;2023-03-21T04:34:49;24.00;;;5.78;;
79019;SDS011;68422;44.714;37.756;2023-03-21T04:35:54;19.30;;;4.72;;
79019;SDS011;68422;44.714;37.756;2023-03-21T04:36:57;22.40;;;4.82;;
79019;SDS011;68422;44.714;37.756;2023-03-21T04:37:58;22.25;;;6.20;;
79019;SDS011;68422;44.714;37.756;2023-03-21T04:39:00;25.85;;;6.55;;
79019;SDS011;68422;44.714;37.756;2023-03-21T04:40:02;18.85;;;5.13;;
79019;SDS011;68422;44.714;37.756;2023-03-21T04:41:06;23.35;;;5.25;;
79019;SDS011;68422;44.714;37.756;2023-03-21T04:42:07;24.55;;;5.63;;
79019;SDS011;68422;44.714;37.756;2023-03-21T04:43:09;22.42;;;5.13;;
79019;SDS011;68422;44.714;37.756;2023-03-21T04:44:13;23.67;;;5.30;;
79019;SDS011;68422;44.714;37.756;2023-03-21T04:45:16;18.10;;;5.00;;
79019;SDS011;68422;44.714;37.756;2023-03-21T04:46:19;17.73;;;4.47;;
79019;SDS011;68422;44.714;37.756;2023-03-21T04:47:23;20.20;;;5.20;;
79019;SDS011;68422;44.714;37.756;2023-03-21T04:48:25;19.92;;;4.75;;
79019;SDS011;68422;44.714;37.756;2023-03-21T04:49:26;19.45;;;4.93;;
79019;SDS011;68422;44.714;37.756;2023-03-21T04:50:27;19.30;;;4.85;;
79019;SDS011;68422;44.714;37.756;2023-03-21T04:51:29;23.23;;;5.10;;
79019;SDS011;68422;44.714;37.756;2023-03-21T04:52:30;18.95;;;4.90;;
79019;SDS011;68422;44.714;37.756;2023-03-21T04:53:32;20.75;;;4.43;;
79019;SDS011;68422;44.714;37.756;2023-03-21T04:54:33;19.35;;;4.68;;
79019;SDS011;68422;44.714;37.756;2023-03-21T04:55:35;22.33;;;5.00;;
79019;SDS011;68422;44.714;37.756;2023-03-21T04:56:36;20.20;;;5.78;;
79019;SDS011;68422;44.714;37.756;2023-03-21T04:57:37;22.05;;;4.35;;
79019;SDS011;68422;44.714;37.756;2023-03-21T04:58:40;16.80;;;4.47;;
79019;SDS011;68422;44.714;37.756;2023-03-21T04:59:41;15.45;;;4.88;;
79019;SDS011;68422;44.714;37.756;2023-03-21T05:00:43;19.83;;;4.15;;
79019;SDS011;68422;44.714;37.756;2023-03-21T05:01:44;18.60;;;4.10;;
79019;SDS011;68422;44.714;37.756;2023-03-21T05:02:45;17.90;;;4.38;;
79019;SDS011;68422;44.714;37.756;2023-03-21T05:03:47;16.95;;;5.05;;
79019;SDS011;68422;44.714;37.756;2023-03-21T05:04:49;17.85;;;4.85;;
79019;SDS011;68422;44.714;37.756;2023-03-21T05:05:50;20.15;;;4.53;;
79019;SDS011;68422;44.714;37.756;2023-03-21T05:06:53;19.90;;;4.45;;
79019;SDS011;68422;44.714;37.756;2023-03-21T05:07:55;17.42;;;4.43;;
79019;SDS011;68422;44.714;37.756;2023-03-21T05:08:57;17.73;;;4.57;;
79019;SDS011;68422;44.714;37.756;2023-03-21T05:10:00;15.63;;;4.30;;
79019;SDS011;68422;44.714;37.756;2023-03-21T05:11:02;15.82;;;3.88;;
79019;SDS011;68422;44.714;37.756;2023-03-21T05:12:04;15.55;;;4.43;;
79019;SDS011;68422;44.714;37.756;2023-03-21T05:13:07;16.88;;;4.65;;
79019;SDS011;68422;44.714;37.756;2023-03-21T05:14:10;14.20;;;4.10;;
79019;SDS011;68422;44.714;37.756;2023-03-21T05:15:15;15.85;;;4.05;;
79019;SDS011;68422;44.714;37.756;2023-03-21T05:16:16;15.35;;;4.03;;
79019;SDS011;68422;44.714;37.756;2023-03-21T05:17:18;12.70;;;3.63;;
79019;SDS011;68422;44.714;37.756;2023-03-21T05:18:24;13.45;;;3.47;;
79019;SDS011;68422;44.714;37.756;2023-03-21T05:19:43;14.82;;;3.72;;
79019;SDS011;68422;44.714;37.756;2023-03-21T05:20:45;15.00;;;4.38;;
79019;SDS011;68422;44.714;37.756;2023-03-21T05:21:47;16.23;;;3.95;;
79019;SDS011;68422;44.714;37.756;2023-03-21T05:22:54;12.75;;;3.97;;
79019;SDS011;68422;44.714;37.756;2023-03-21T05:23:55;16.50;;;4.07;;
79019;SDS011;68422;44.714;37.756;2023-03-21T05:24:58;11.52;;;3.35;;
79019;SDS011;68422;44.714;37.756;2023-03-21T05:26:07;17.25;;;4.32;;
79019;SDS011;68422;44.714;37.756;2023-03-21T05:27:27;13.30;;;3.67;;
79019;SDS011;68422;44.714;37.756;2023-03-21T05:28:35;14.27;;;3.58;;
79019;SDS011;68422;44.714;37.756;2023-03-21T05:29:37;14.77;;;3.70;;
79019;SDS011;68422;44.714;37.756;2023-03-21T05:30:40;17.23;;;3.75;;
79019;SDS011;68422;44.714;37.756;2023-03-21T05:31:41;12.00;;;3.42;;
79019;SDS011;68422;44.714;37.756;2023-03-21T05:32:47;16.30;;;3.70;;
79019;SDS011;68422;44.714;37.756;2023-03-21T05:33:48;14.68;;;3.60;;
79019;SDS011;68422;44.714;37.756;2023-03-21T05:34:52;15.15;;;3.60;;
79019;SDS011;68422;44.714;37.756;2023-03-21T05:35:55;13.95;;;4.10;;
79019;SDS011;68422;44.714;37.756;2023-03-21T05:36:58;12.00;;;3.53;;
79019;SDS011;68422;44.714;37.756;2023-03-21T05:38:09;11.70;;;3.85;;
79019;SDS011;68422;44.714;37.756;2023-03-21T05:39:21;10.43;;;2.97;;
79019;SDS011;68422;44.714;37.756;2023-03-21T05:40:36;13.82;;;3.25;;
79019;SDS011;68422;44.714;37.756;2023-03-21T05:41:38;14.07;;;3.35;;
79019;SDS011;68422;44.714;37.756;2023-03-21T05:42:39;10.52;;;3.35;;
79019;SDS011;68422;44.714;37.756;2023-03-21T05:43:50;10.18;;;3.03;;
79019;SDS011;68422;44.714;37.756;2023-03-21T05:44:51;11.63;;;3.60;;
79019;SDS011;68422;44.714;37.756;2023-03-21T05:45:58;11.13;;;3.83;;
79019;SDS011;68422;44.714;37.756;2023-03-21T05:47:02;12.05;;;3.60;;
79019;SDS011;68422;44.714;37.756;2023-03-21T05:48:12;11.02;;;3.20;;
79019;SDS011;68422;44.714;37.756;2023-03-21T05:49:31;12.48;;;3.42;;
79019;SDS011;68422;44.714;37.756;2023-03-21T05:51:45;9.85;;;2.67;;
79019;SDS011;68422;44.714;37.756;2023-03-21T05:52:47;12.18;;;3.47;;
79019;SDS011;68422;44.714;37.756;2023-03-21T05:53:48;14.43;;;3.80;;
79019;SDS011;68422;44.714;37.756;2023-03-21T05:54:51;11.90;;;3.35;;
79019;SDS011;68422;44.714;37.756;2023-03-21T05:55:55;9.82;;;2.88;;
79019;SDS011;68422;44.714;37.756;2023-03-21T05:57:18;10.90;;;3.35;;
79019;SDS011;68422;44.714;37.756;2023-03-21T05:58:28;11.07;;;3.10;;
79019;SDS011;68422;44.714;37.756;2023-03-21T05:59:30;12.68;;;3.22;;
79019;SDS011;68422;44.714;37.756;2023-03-21T06:00:31;10.80;;;3.00;;
79019;SDS011;68422;44.714;37.756;2023-03-21T06:01:50;9.35;;;2.28;;
79019;SDS011;68422;44.714;37.756;2023-03-21T06:02:51;8.77;;;2.88;;
79019;SDS011;68422;44.714;37.756;2023-03-21T06:04:12;10.60;;;3.10;;
79019;SDS011;68422;44.714;37.756;2023-03-21T06:05:14;11.10;;;3.08;;
79019;SDS011;68422;44.714;37.756;2023-03-21T06:06:15;13.27;;;3.22;;
79019;SDS011;68422;44.714;37.756;2023-03-21T06:07:27;11.73;;;2.90;;
79019;SDS011;68422;44.714;37.756;2023-03-21T06:08:29;11.85;;;2.88;;
79019;SDS011;68422;44.714;37.756;2023-03-21T06:09:31;9.30;;;3.03;;
79019;SDS011;68422;44.714;37.756;2023-03-21T06:10:36;10.48;;;2.83;;
79019;SDS011;68422;44.714;37.756;2023-03-21T06:11:45;8.30;;;2.45;;
79019;SDS011;68422;44.714;37.756;2023-03-21T06:13:00;10.20;;;2.80;;
79019;SDS011;68422;44.714;37.756;2023-03-21T06:14:05;8.20;;;3.40;;
79019;SDS011;68422;44.714;37.756;2023-03-21T06:15:07;13.27;;;2.88;;
79019;SDS011;68422;44.714;37.756;2023-03-21T06:16:29;9.68;;;2.53;;
79019;SDS011;68422;44.714;37.756;2023-03-21T06:17:30;7.97;;;2.53;;
79019;SDS011;68422;44.714;37.756;2023-03-21T06:18:37;10.43;;;2.92;;
79019;SDS011;68422;44.714;37.756;2023-03-21T06:20:05;11.63;;;2.38;;
79019;SDS011;68422;44.714;37.756;2023-03-21T06:21:13;10.57;;;3.50;;
79019;SDS011;68422;44.714;37.756;2023-03-21T06:22:15;10.27;;;2.40;;
79019;SDS011;68422;44.714;37.756;2023-03-21T06:23:17;8.52;;;2.53;;
79019;SDS011;68422;44.714;37.756;2023-03-21T06:24:18;9.48;;;2.50;;
79019;SDS011;68422;44.714;37.756;2023-03-21T06:25:21;9.35;;;3.03;;
79019;SDS011;68422;44.714;37.756;2023-03-21T06:26:23;9.07;;;2.85;;
79019;SDS011;68422;44.714;37.756;2023-03-21T06:27:26;7.90;;;2.78;;
79019;SDS011;68422;44.714;37.756;2023-03-21T06:28:29;10.23;;;3.08;;
79019;SDS011;68422;44.714;37.756;2023-03-21T06:29:31;7.97;;;2.63;;
79019;SDS011;68422;44.714;37.756;2023-03-21T06:30:32;9.27;;;2.75;;
79019;SDS011;68422;44.714;37.756;2023-03-21T06:31:44;8.57;;;2.85;;
79019;SDS011;68422;44.714;37.756;2023-03-21T06:32:46;9.98;;;2.40;;
79019;SDS011;68422;44.714;37.756;2023-03-21T06:33:51;7.60;;;2.38;;
79019;SDS011;68422;44.714;37.756;2023-03-21T06:34:52;9.00;;;2.35;;
79019;SDS011;68422;44.714;37.756;2023-03-21T06:35:54;6.82;;;2.45;;
79019;SDS011;68422;44.714;37.756;2023-03-21T06:36:57;7.05;;;2.38;;
79019;SDS011;68422;44.714;37.756;2023-03-21T06:38:03;8.65;;;3.08;;
79019;SDS011;68422;44.714;37.756;2023-03-21T06:40:12;5.70;;;1.85;;
79019;SDS011;68422;44.714;37.756;2023-03-21T06:41:13;11.27;;;2.42;;
79019;SDS011;68422;44.714;37.756;2023-03-21T06:42:24;8.95;;;2.33;;
79019;SDS011;68422;44.714;37.756;2023-03-21T06:43:31;7.90;;;2.40;;
79019;SDS011;68422;44.714;37.756;2023-03-21T06:44:36;8.27;;;2.47;;
79019;SDS011;68422;44.714;37.756;2023-03-21T06:45:41;7.68;;;2.35;;
79019;SDS011;68422;44.714;37.756;2023-03-21T06:46:45;7.15;;;2.60;;
79019;SDS011;68422;44.714;37.756;2023-03-21T06:47:50;7.90;;;2.35;;
79019;SDS011;68422;44.714;37.756;2023-03-21T06:49:11;8.05;;;2.42;;
79019;SDS011;68422;44.714;37.756;2023-03-21T06:50:13;6.50;;;2.10;;
79019;SDS011;68422;44.714;37.756;2023-03-21T06:51:17;8.07;;;2.30;;
79019;SDS011;68422;44.714;37.756;2023-03-21T06:52:42;9.30;;;2.40;;
79019;SDS011;68422;44.714;37.756;2023-03-21T06:53:44;7.88;;;2.45;;
79019;SDS011;68422;44.714;37.756;2023-03-21T06:55:02;7.43;;;2.00;;
79019;SDS011;68422;44.714;37.756;2023-03-21T06:56:05;9.35;;;2.53;;
79019;SDS011;68422;44.714;37.756;2023-03-21T06:57:07;7.70;;;2.53;;
79019;SDS011;68422;44.714;37.756;2023-03-21T06:58:09;7.60;;;2.13;;
79019;SDS011;68422;44.714;37.756;2023-03-21T06:59:10;8.30;;;2.65;;
79019;SDS011;68422;44.714;37.756;2023-03-21T07:00:24;5.50;;;1.95;;
79019;SDS011;68422;44.714;37.756;2023-03-21T07:01:26;6.30;;;1.92;;
79019;SDS011;68422;44.714;37.756;2023-03-21T07:02:37;7.57;;;1.88;;
79019;SDS011;68422;44.714;37.756;2023-03-21T07:03:48;6.93;;;2.13;;
79019;SDS011;68422;44.714;37.756;2023-03-21T07:04:53;7.60;;;2.60;;
79019;SDS011;68422;44.714;37.756;2023-03-21T07:06:58;6.70;;;2.30;;
79019;SDS011;68422;44.714;37.756;2023-03-21T07:08:00;5.63;;;2.17;;
79019;SDS011;68422;44.714;37.756;2023-03-21T07:09:04;8.27;;;2.20;;
79019;SDS011;68422;44.714;37.756;2023-03-21T07:10:07;7.15;;;1.98;;
79019;SDS011;68422;44.714;37.756;2023-03-21T07:11:18;5.05;;;1.65;;
79019;SDS011;68422;44.714;37.756;2023-03-21T07:12:21;8.40;;;1.95;;
79019;SDS011;68422;44.714;37.756;2023-03-21T07:13:42;7.97;;;2.17;;
79019;SDS011;68422;44.714;37.756;2023-03-21T07:14:43;7.20;;;2.15;;
79019;SDS011;68422;44.714;37.756;2023-03-21T07:15:45;8.68;;;2.50;;